createdAt,value
2023-02-23T00:02:08.664Z,19.42
2023-02-23T00:04:38.318Z,15.77
2023-02-23T00:09:37.952Z,11.07
2023-02-23T00:12:09.890Z,13.30
2023-02-23T00:14:38.877Z,16.23
2023-02-23T00:17:15.277Z,16.13
2023-02-23T00:19:47.167Z,18.77
2023-02-23T00:22:15.470Z,14.82
2023-02-23T00:24:47.457Z,16.85
2023-02-23T00:27:20.415Z,20.98
2023-02-23T00:29:49.924Z,17.88
2023-02-23T00:32:22.571Z,25.75
2023-02-23T00:34:53.607Z,29.52
2023-02-23T00:37:23.695Z,19.35
2023-02-23T00:39:56.965Z,20.23
2023-02-23T00:42:29.722Z,25.75
2023-02-23T00:45:08.620Z,23.55
2023-02-23T00:47:36.568Z,26.90
2023-02-23T00:50:05.606Z,25.13
2023-02-23T00:52:33.328Z,23.92
2023-02-23T00:55:04.067Z,28.98
2023-02-23T00:57:31.644Z,19.92
2023-02-23T00:59:59.461Z,22.63
2023-02-23T01:02:30.875Z,17.55
2023-02-23T01:04:58.853Z,15.13
2023-02-23T01:07:26.927Z,20.58
2023-02-23T01:09:54.845Z,61.77
2023-02-23T01:12:22.538Z,82.47
2023-02-23T01:14:51.242Z,79.27
2023-02-23T01:17:19.199Z,78.35
2023-02-23T01:19:47.276Z,75.53
2023-02-23T01:22:14.899Z,92.07
2023-02-23T01:24:42.980Z,84.82
2023-02-23T01:27:10.783Z,84.47
2023-02-23T01:29:38.708Z,92.15
2023-02-23T01:34:36.189Z,83.63
2023-02-23T01:37:03.977Z,84.25
2023-02-23T01:39:33.714Z,81.10
2023-02-23T01:42:01.260Z,83.57
2023-02-23T01:44:32.016Z,85.35
2023-02-23T01:46:59.611Z,87.57
2023-02-23T01:49:31.013Z,80.05
2023-02-23T01:52:11.088Z,86.00
2023-02-23T01:54:52.386Z,73.23
2023-02-23T01:57:25.105Z,61.85
2023-02-23T01:59:55.110Z,71.00
2023-02-23T02:05:05.061Z,79.97
2023-02-23T02:07:35.400Z,72.38
2023-02-23T02:10:13.121Z,77.68
2023-02-23T02:12:54.891Z,83.32
2023-02-23T02:15:28.298Z,70.32
2023-02-23T02:18:09.684Z,75.63
2023-02-23T02:21:20.721Z,78.97
2023-02-23T02:24:19.545Z,57.42
2023-02-23T02:27:20.289Z,60.20
2023-02-23T02:30:32.312Z,63.67
2023-02-23T02:33:44.041Z,66.55
2023-02-23T02:37:02.270Z,64.95
2023-02-23T02:40:16.490Z,54.13
2023-02-23T02:43:01.191Z,46.67
2023-02-23T02:45:34.665Z,43.42
2023-02-23T02:49:00.561Z,43.88
2023-02-23T02:51:49.278Z,43.22
2023-02-23T02:54:31.737Z,32.60
2023-02-23T02:57:04.595Z,29.92
2023-02-23T03:00:06.059Z,33.60
2023-02-23T03:02:58.770Z,32.70
2023-02-23T03:06:07.221Z,23.65
2023-02-23T03:09:13.042Z,23.77
2023-02-23T03:12:12.262Z,22.90
2023-02-23T03:18:45.417Z,18.92
2023-02-23T03:21:43.030Z,18.23
2023-02-23T03:24:57.317Z,16.98
2023-02-23T03:27:54.117Z,16.02
2023-02-23T03:31:25.094Z,19.25
2023-02-23T03:34:33.607Z,13.65
2023-02-23T03:37:50.686Z,15.85
2023-02-23T03:40:51.180Z,13.15
2023-02-23T03:43:44.130Z,12.70
2023-02-23T03:46:33.453Z,11.82
2023-02-23T03:49:23.397Z,13.73
2023-02-23T03:52:18.421Z,14.75
2023-02-23T03:55:18.140Z,13.50
2023-02-23T03:58:09.674Z,13.00
2023-02-23T04:01:04.378Z,16.88
2023-02-23T04:03:55.887Z,40.85
2023-02-23T04:06:46.212Z,39.05
2023-02-23T04:09:33.143Z,49.13
2023-02-23T04:12:48.505Z,59.65
2023-02-23T04:15:33.871Z,60.85
2023-02-23T04:18:03.707Z,63.15
2023-02-23T04:20:31.878Z,60.13
2023-02-23T04:22:59.483Z,52.72
2023-02-23T04:25:28.553Z,56.92
2023-02-23T04:27:56.172Z,51.60
2023-02-23T04:30:28.696Z,53.63
2023-02-23T04:32:57.049Z,57.00
2023-02-23T04:35:26.892Z,62.40
2023-02-23T04:40:24.312Z,52.47
2023-02-23T04:42:52.812Z,47.33
2023-02-23T04:45:22.189Z,60.90
2023-02-23T04:47:50.932Z,56.67
2023-02-23T04:50:20.081Z,54.05
2023-02-23T04:52:48.801Z,53.08
2023-02-23T04:55:21.586Z,58.70
2023-02-23T04:57:49.851Z,59.15
2023-02-23T05:00:19.179Z,58.78
2023-02-23T05:02:47.298Z,52.25
2023-02-23T05:05:16.080Z,59.38
2023-02-23T05:07:44.106Z,57.42
2023-02-23T05:10:12.423Z,51.13
2023-02-23T05:12:39.979Z,56.10
2023-02-23T05:15:08.391Z,57.20
2023-02-23T05:17:39.003Z,52.63
2023-02-23T05:20:07.997Z,51.20
2023-02-23T05:22:35.641Z,46.93
2023-02-23T05:25:04.338Z,46.22
2023-02-23T05:27:32.774Z,52.30
2023-02-23T05:30:01.528Z,55.38
2023-02-23T05:32:29.761Z,58.20
2023-02-23T05:34:57.819Z,57.65
2023-02-23T05:37:25.360Z,46.25
2023-02-23T05:39:53.188Z,54.20
2023-02-23T05:42:20.619Z,57.58
2023-02-23T05:44:49.112Z,59.17
2023-02-23T05:47:19.579Z,48.33
2023-02-23T05:50:26.746Z,61.45
2023-02-23T05:52:57.462Z,61.42
2023-02-23T05:55:25.838Z,60.47
2023-02-23T05:57:53.497Z,69.47
2023-02-23T06:00:22.176Z,66.40
2023-02-23T06:02:52.502Z,61.92
2023-02-23T06:05:20.610Z,65.00
2023-02-23T06:07:48.184Z,54.65
2023-02-23T06:10:16.543Z,54.80
2023-02-23T06:12:44.094Z,47.47
2023-02-23T06:15:12.093Z,48.22
2023-02-23T06:17:39.713Z,49.72
2023-02-23T06:20:08.159Z,47.35
2023-02-23T06:22:35.894Z,49.88
2023-02-23T06:25:05.229Z,57.60
2023-02-23T06:27:32.852Z,56.88
2023-02-23T06:30:00.692Z,55.60
2023-02-23T06:32:28.446Z,55.38
2023-02-23T06:34:56.610Z,54.58
2023-02-23T06:37:25.501Z,59.05
2023-02-23T06:39:53.379Z,53.55
2023-02-23T06:42:20.952Z,54.40
2023-02-23T06:44:48.860Z,54.72
2023-02-23T06:47:16.688Z,52.30
2023-02-23T06:49:44.607Z,50.72
2023-02-23T06:52:13.838Z,45.05
2023-02-23T06:54:42.540Z,43.63
2023-02-23T06:57:11.190Z,46.10
2023-02-23T06:59:39.411Z,44.10
2023-02-23T07:02:07.468Z,40.22
2023-02-23T07:04:35.440Z,41.47
2023-02-23T07:07:03.858Z,36.58
2023-02-23T07:09:32.095Z,40.72
2023-02-23T07:12:00.990Z,33.60
2023-02-23T07:14:29.538Z,35.83
2023-02-23T07:16:57.741Z,39.28
2023-02-23T07:19:26.109Z,44.50
2023-02-23T07:21:53.887Z,40.75
2023-02-23T07:24:43.249Z,40.83
2023-02-23T07:27:22.262Z,40.83
2023-02-23T07:29:51.464Z,38.33
2023-02-23T07:32:19.260Z,39.83
2023-02-23T07:34:47.957Z,44.65
2023-02-23T07:37:17.156Z,41.20
2023-02-23T07:39:45.269Z,45.45
2023-02-23T07:42:13.222Z,44.20
2023-02-23T07:44:41.170Z,47.60
2023-02-23T07:47:08.760Z,38.90
2023-02-23T07:49:36.631Z,40.58
2023-02-23T07:52:04.352Z,39.25
2023-02-23T07:54:32.290Z,44.53
2023-02-23T07:57:00.389Z,36.00
2023-02-23T07:59:28.175Z,36.45
2023-02-23T08:01:55.883Z,35.33
2023-02-23T08:04:24.258Z,37.78
2023-02-23T08:06:51.797Z,29.70
2023-02-23T08:09:19.951Z,32.70
2023-02-23T08:11:47.425Z,34.22
2023-02-23T08:14:15.432Z,37.67
2023-02-23T08:16:42.963Z,27.55
2023-02-23T08:19:11.142Z,31.65
2023-02-23T08:21:38.699Z,28.42
2023-02-23T08:24:07.138Z,20.73
2023-02-23T08:26:37.788Z,20.13
2023-02-23T08:29:06.013Z,20.20
2023-02-23T08:31:33.918Z,21.70
2023-02-23T08:34:02.389Z,22.17
2023-02-23T08:36:29.790Z,36.63
2023-02-23T08:38:58.175Z,21.15
2023-02-23T08:41:26.309Z,20.98
2023-02-23T08:43:54.547Z,21.60
2023-02-23T08:46:22.344Z,26.67
2023-02-23T08:48:50.183Z,23.60
2023-02-23T08:51:18.653Z,26.15
2023-02-23T08:53:46.766Z,29.70
2023-02-23T08:56:15.501Z,22.80
2023-02-23T08:58:43.722Z,23.40
2023-02-23T09:01:22.097Z,32.20
2023-02-23T09:03:50.417Z,32.97
2023-02-23T09:06:22.899Z,32.95
2023-02-23T09:08:51.214Z,42.47
2023-02-23T09:11:19.161Z,37.28
2023-02-23T09:13:47.734Z,34.73
2023-02-23T09:16:15.335Z,37.60
2023-02-23T09:18:44.055Z,38.05
2023-02-23T09:21:25.489Z,43.15
2023-02-23T09:23:56.131Z,37.70
2023-02-23T09:26:24.556Z,36.90
2023-02-23T09:28:52.439Z,36.40
2023-02-23T09:31:23.922Z,38.53
2023-02-23T09:33:53.314Z,35.75
2023-02-23T09:36:25.063Z,36.33
2023-02-23T09:38:57.194Z,38.97
2023-02-23T09:41:54.213Z,34.58
2023-02-23T09:44:41.272Z,32.17
2023-02-23T09:47:45.339Z,31.98
2023-02-23T09:50:26.913Z,30.85
2023-02-23T09:53:21.785Z,33.90
2023-02-23T09:55:51.998Z,30.50
2023-02-23T09:58:30.409Z,30.33
2023-02-23T10:01:27.164Z,28.25
2023-02-23T10:04:31.383Z,29.50
2023-02-23T10:07:18.696Z,29.95
2023-02-23T10:10:07.325Z,29.20
2023-02-23T10:12:58.847Z,30.63
2023-02-23T10:15:47.384Z,30.35
2023-02-23T10:18:46.202Z,30.10
2023-02-23T10:21:40.395Z,24.20
2023-02-23T10:24:35.431Z,24.50
2023-02-23T10:27:25.743Z,25.02
2023-02-23T10:29:56.544Z,19.60
2023-02-23T10:32:57.797Z,23.98
2023-02-23T10:35:29.993Z,16.25
2023-02-23T10:37:59.948Z,20.42
2023-02-23T10:40:33.012Z,18.25
2023-02-23T10:43:03.347Z,15.20
2023-02-23T10:45:52.056Z,15.77
2023-02-23T10:48:27.749Z,16.63
2023-02-23T10:51:03.179Z,12.90
2023-02-23T10:53:36.668Z,12.15
2023-02-23T10:56:25.176Z,12.90
2023-02-23T10:58:59.008Z,13.55
2023-02-23T11:02:00.985Z,17.05
2023-02-23T11:04:35.111Z,15.18
2023-02-23T11:07:18.630Z,19.75
2023-02-23T11:09:48.095Z,11.63
2023-02-23T11:12:41.995Z,10.02
2023-02-23T11:15:31.962Z,11.82
2023-02-23T11:18:07.792Z,16.23
2023-02-23T11:20:43.312Z,13.85
2023-02-23T11:23:36.754Z,13.27
2023-02-23T11:26:32.988Z,13.18
2023-02-23T11:29:31.219Z,8.50
2023-02-23T11:31:59.756Z,12.07
2023-02-23T11:34:41.286Z,14.25
2023-02-23T11:37:23.158Z,9.70
2023-02-23T11:39:59.379Z,10.40
2023-02-23T11:42:35.198Z,9.40
2023-02-23T11:45:17.254Z,10.10
2023-02-23T11:47:55.266Z,11.95
2023-02-23T11:50:36.396Z,11.77
2023-02-23T11:53:13.838Z,10.55
2023-02-23T11:55:54.845Z,12.10
2023-02-23T11:58:35.937Z,11.02
2023-02-23T12:01:14.378Z,9.98
2023-02-23T12:03:58.528Z,9.38
2023-02-23T12:06:30.603Z,8.82
2023-02-23T12:09:02.962Z,10.27
2023-02-23T12:11:37.663Z,10.93
2023-02-23T12:14:26.235Z,7.93
2023-02-23T12:17:05.293Z,13.35
2023-02-23T12:20:11.278Z,8.43
2023-02-23T12:22:48.749Z,10.43
2023-02-23T12:26:11.788Z,10.95
2023-02-23T12:28:45.944Z,8.57
2023-02-23T12:31:40.433Z,8.52
2023-02-23T12:34:38.577Z,21.27
2023-02-23T12:37:28.395Z,12.25
2023-02-23T12:40:28.082Z,9.90
2023-02-23T12:43:27.008Z,6.75
2023-02-23T12:46:21.925Z,12.80
2023-02-23T12:49:19.236Z,8.40
2023-02-23T12:52:02.183Z,14.10
2023-02-23T12:54:31.772Z,8.05
2023-02-23T12:57:28.016Z,10.82
2023-02-23T13:00:36.518Z,10.50
2023-02-23T13:03:31.318Z,11.38
2023-02-23T13:06:30.462Z,11.65
2023-02-23T13:09:31.749Z,11.73
2023-02-23T13:12:17.007Z,11.50
2023-02-23T13:15:19.656Z,8.48
2023-02-23T13:18:01.719Z,11.63
2023-02-23T13:20:55.946Z,9.70
2023-02-23T13:23:36.183Z,9.10
2023-02-23T13:26:28.764Z,10.30
2023-02-23T13:29:02.651Z,10.63
2023-02-23T13:31:37.478Z,13.93
2023-02-23T13:34:12.382Z,12.43
2023-02-23T13:36:42.174Z,9.45
2023-02-23T13:39:31.223Z,8.55
2023-02-23T13:42:28.188Z,6.43
2023-02-23T13:45:26.321Z,7.00
2023-02-23T13:48:14.235Z,9.82
2023-02-23T13:51:06.169Z,9.73
2023-02-23T13:54:06.226Z,7.15
2023-02-23T13:56:44.442Z,8.00
2023-02-23T13:59:52.772Z,9.40
2023-02-23T14:02:41.317Z,8.13
2023-02-23T14:05:27.544Z,9.07
2023-02-23T14:08:06.098Z,9.88
2023-02-23T14:13:28.997Z,8.70
2023-02-23T14:16:23.143Z,8.95
2023-02-23T14:19:12.800Z,10.55
2023-02-23T14:22:04.226Z,12.38
2023-02-23T14:24:31.893Z,11.27
2023-02-23T14:27:07.366Z,13.88
2023-02-23T14:30:05.700Z,11.18
2023-02-23T14:32:49.314Z,10.32
2023-02-23T14:35:40.202Z,10.82
2023-02-23T14:38:07.971Z,16.92
2023-02-23T14:40:41.979Z,9.77
2023-02-23T14:43:43.477Z,9.32
2023-02-23T14:46:21.492Z,11.05
2023-02-23T14:49:10.490Z,16.08
2023-02-23T14:51:48.149Z,16.48
2023-02-23T14:54:27.330Z,11.57
2023-02-23T14:59:49.015Z,13.32
2023-02-23T15:02:24.937Z,9.00
2023-02-23T15:04:53.379Z,9.30
2023-02-23T15:07:40.009Z,9.47
2023-02-23T15:10:43.561Z,15.25
2023-02-23T15:13:34.268Z,10.02
2023-02-23T15:16:13.029Z,18.27
2023-02-23T15:18:44.675Z,12.35
2023-02-23T15:21:19.509Z,11.82
2023-02-23T15:23:53.033Z,8.27
2023-02-23T15:26:35.445Z,10.38
2023-02-23T15:29:10.152Z,12.75
2023-02-23T15:31:50.257Z,15.88
2023-02-23T15:34:20.507Z,11.93
2023-02-23T15:37:06.226Z,9.77
2023-02-23T15:39:54.240Z,13.35
2023-02-23T15:42:29.047Z,12.45
2023-02-23T15:45:05.323Z,18.75
2023-02-23T15:47:37.714Z,15.60
2023-02-23T15:50:24.709Z,17.20
2023-02-23T15:53:08.954Z,10.82
2023-02-23T15:55:38.361Z,10.73
2023-02-23T15:58:17.933Z,17.17
2023-02-23T16:01:08.898Z,15.80
2023-02-23T16:03:44.423Z,22.23
2023-02-23T16:06:33.408Z,19.48
2023-02-23T16:09:05.822Z,13.68
2023-02-23T16:11:37.090Z,17.90
2023-02-23T16:14:06.888Z,18.50
2023-02-23T16:16:35.876Z,10.20
2023-02-23T16:21:33.132Z,17.33
2023-02-23T16:24:13.846Z,21.40
2023-02-23T16:26:44.465Z,15.95
2023-02-23T16:29:21.267Z,16.38
2023-02-23T16:31:59.923Z,20.98
2023-02-23T16:37:23.076Z,12.60
2023-02-23T16:39:51.834Z,12.43
2023-02-23T16:42:34.879Z,17.95
2023-02-23T16:45:03.053Z,17.83
2023-02-23T16:47:43.799Z,24.63
2023-02-23T16:50:24.423Z,19.02
2023-02-23T16:52:53.710Z,19.40
2023-02-23T16:55:28.559Z,26.83
2023-02-23T16:58:02.330Z,25.50
2023-02-23T17:00:33.676Z,25.15
2023-02-23T17:03:02.248Z,24.92
2023-02-23T17:05:30.529Z,25.40
2023-02-23T17:07:59.231Z,22.73
2023-02-23T17:10:32.527Z,19.17
2023-02-23T17:13:12.961Z,18.23
2023-02-23T17:15:51.750Z,20.02
2023-02-23T17:20:52.739Z,20.92
2023-02-23T17:23:23.346Z,20.10
2023-02-23T17:25:51.309Z,20.23
2023-02-23T17:28:19.324Z,24.33
2023-02-23T17:30:47.683Z,24.08
2023-02-23T17:33:15.465Z,21.38
2023-02-23T17:35:44.071Z,28.95
2023-02-23T17:38:11.601Z,22.65
2023-02-23T17:40:39.544Z,19.25
2023-02-23T17:43:08.086Z,18.58
2023-02-23T17:45:36.192Z,20.10
2023-02-23T17:48:03.790Z,16.70
2023-02-23T17:50:31.617Z,19.20
2023-02-23T17:52:59.239Z,19.38
2023-02-23T17:55:27.068Z,23.45
2023-02-23T17:57:54.599Z,16.73
2023-02-23T18:00:22.374Z,20.42
2023-02-23T18:02:51.092Z,23.35
2023-02-23T18:05:18.888Z,17.70
2023-02-23T18:07:48.447Z,17.45
2023-02-23T18:10:17.328Z,24.45
2023-02-23T18:12:45.529Z,24.50
2023-02-23T18:15:13.260Z,25.38
2023-02-23T18:17:41.288Z,19.52
2023-02-23T18:20:10.998Z,21.75
2023-02-23T18:22:39.397Z,17.02
2023-02-23T18:25:07.952Z,17.45
2023-02-23T18:27:35.812Z,23.73
2023-02-23T18:30:04.135Z,26.63
2023-02-23T18:32:32.525Z,27.40
2023-02-23T18:35:01.163Z,29.95
2023-02-23T18:37:29.740Z,40.08
2023-02-23T18:39:59.359Z,35.53
2023-02-23T18:42:27.302Z,32.15
2023-02-23T18:44:54.797Z,27.45
2023-02-23T18:47:22.801Z,26.27
2023-02-23T18:49:50.582Z,23.52
2023-02-23T18:52:18.381Z,26.45
2023-02-23T18:54:46.241Z,27.73
2023-02-23T18:57:14.171Z,25.60
2023-02-23T18:59:41.817Z,29.23
2023-02-23T19:02:10.935Z,21.48
2023-02-23T19:04:39.392Z,21.38
2023-02-23T19:07:07.264Z,24.55
2023-02-23T19:09:39.738Z,29.42
2023-02-23T19:12:07.849Z,22.98
2023-02-23T19:14:48.908Z,24.05
2023-02-23T19:17:17.724Z,21.13
2023-02-23T19:19:45.471Z,24.58
2023-02-23T19:22:13.440Z,21.30
2023-02-23T19:24:41.221Z,14.40
2023-02-23T19:27:10.146Z,20.60
2023-02-23T19:29:37.825Z,15.00
2023-02-23T19:32:06.994Z,21.83
2023-02-23T19:34:36.255Z,21.20
2023-02-23T19:37:04.082Z,18.20
2023-02-23T19:39:31.897Z,25.10
2023-02-23T19:41:59.718Z,13.95
2023-02-23T19:44:27.311Z,19.00
2023-02-23T19:46:55.439Z,19.60
2023-02-23T19:49:23.671Z,20.73
2023-02-23T19:51:53.146Z,18.17
2023-02-23T19:56:50.565Z,14.77
2023-02-23T19:59:19.093Z,15.30
2023-02-23T20:01:47.245Z,16.73
2023-02-23T20:04:14.968Z,14.82
2023-02-23T20:06:47.193Z,11.90
2023-02-23T20:09:15.626Z,14.57
2023-02-23T20:11:43.576Z,18.73
2023-02-23T20:14:12.539Z,13.77
2023-02-23T20:16:40.853Z,21.08
2023-02-23T20:19:08.551Z,18.40
2023-02-23T20:22:16.143Z,16.70
2023-02-23T20:24:44.107Z,18.38
2023-02-23T20:27:12.044Z,16.85
2023-02-23T20:29:39.724Z,16.25
2023-02-23T20:32:08.646Z,11.98
2023-02-23T20:34:39.625Z,19.93
2023-02-23T20:37:08.444Z,16.25
2023-02-23T20:39:37.351Z,24.27
2023-02-23T20:42:05.947Z,20.00
2023-02-23T20:44:33.804Z,19.80
2023-02-23T20:48:01.569Z,19.30
2023-02-23T20:51:12.906Z,29.02
2023-02-23T20:53:42.434Z,18.20
2023-02-23T20:56:11.044Z,28.95
2023-02-23T20:58:39.837Z,25.52
2023-02-23T21:01:20.587Z,27.48
2023-02-23T21:03:54.056Z,22.40
2023-02-23T21:06:26.038Z,21.75
2023-02-23T21:09:02.940Z,23.27
2023-02-23T21:11:34.218Z,21.77
2023-02-23T21:14:41.310Z,23.00
2023-02-23T21:18:01.004Z,21.88
2023-02-23T21:20:30.328Z,19.38
2023-02-23T21:22:58.650Z,19.20
2023-02-23T21:25:28.607Z,16.73
2023-02-23T21:27:57.255Z,16.70
2023-02-23T21:30:28.720Z,17.08
2023-02-23T21:32:57.917Z,17.70
2023-02-23T21:35:25.615Z,13.52
2023-02-23T21:37:53.753Z,20.95
2023-02-23T21:40:22.309Z,16.40
2023-02-23T21:42:51.318Z,17.90
2023-02-23T21:45:19.536Z,17.15
2023-02-23T21:47:49.137Z,17.07
2023-02-23T21:50:19.857Z,14.57
2023-02-23T21:52:50.513Z,14.55
2023-02-23T21:55:22.153Z,23.88
2023-02-23T21:57:52.117Z,18.02
2023-02-23T22:02:50.573Z,20.17
2023-02-23T22:05:20.499Z,15.82
2023-02-23T22:07:52.192Z,18.45
2023-02-23T22:10:23.350Z,25.90
2023-02-23T22:12:56.022Z,18.80
2023-02-23T22:15:29.824Z,18.27
2023-02-23T22:17:58.567Z,14.52
2023-02-23T22:20:26.380Z,15.38
2023-02-23T22:22:54.842Z,17.63
2023-02-23T22:25:22.626Z,13.05
2023-02-23T22:27:51.738Z,19.95
2023-02-23T22:30:23.928Z,18.08
2023-02-23T22:32:52.168Z,29.48
2023-02-23T22:35:19.942Z,18.63
2023-02-23T22:37:48.365Z,18.83
2023-02-23T22:40:16.890Z,16.67
2023-02-23T22:42:49.803Z,16.15
2023-02-23T22:45:19.010Z,17.50
2023-02-23T22:47:48.376Z,21.00
2023-02-23T22:50:19.507Z,19.77
2023-02-23T22:52:47.684Z,20.23
2023-02-23T22:55:15.344Z,17.63
2023-02-23T22:57:44.070Z,19.27
2023-02-23T23:00:14.678Z,21.42
2023-02-23T23:02:43.189Z,20.65
2023-02-23T23:05:13.410Z,20.35
2023-02-23T23:07:42.035Z,19.27
2023-02-23T23:10:12.178Z,17.02
2023-02-23T23:12:40.517Z,24.25
2023-02-23T23:15:17.274Z,19.33
2023-02-23T23:17:48.637Z,19.83
2023-02-23T23:20:25.686Z,17.27
2023-02-23T23:22:57.513Z,25.55
2023-02-23T23:25:25.687Z,25.23
2023-02-23T23:27:56.255Z,17.63
2023-02-23T23:30:29.413Z,16.08
2023-02-23T23:32:58.457Z,27.45
2023-02-23T23:35:26.246Z,21.75
2023-02-23T23:37:54.075Z,21.17
2023-02-23T23:40:24.600Z,18.73
2023-02-23T23:42:53.351Z,25.60
2023-02-23T23:45:24.446Z,18.43
2023-02-23T23:47:52.421Z,21.58
2023-02-23T23:50:24.458Z,19.10
2023-02-23T23:52:54.390Z,20.00
2023-02-23T23:55:22.428Z,19.85
2023-02-23T23:57:50.236Z,21.52
